Terminal Aerodrome Forecast
Issued by NWS Buffalo, NY

Home | Current Version | Previous Version | Text Only | Print | Product List | Glossary On
Versions: 1 2 3 4 5 6 7 8 9 10 11 12 13 14 15 16 17 18 19 20 21 22 23 24 25
708
FTUS41 KBUF 191737
TAFROC
TAF
KROC 191737Z 1918/2018 26009KT P6SM -DZ OVC010
     FM192000 24008KT P6SM OVC015
     FM192300 VRB03KT P6SM OVC250
     FM200300 00000KT P6SM OVC200
     FM200400 00000KT P6SM BKN250
     FM200900 12004KT P6SM BKN250
     FM201400 13006KT P6SM BKN130=

USA.gov is the U.S. government's official web portal to all federal, state and local government web resources and services.